sensor_id;sensor_type;location;lat;lon;timestamp;pressure;altitude;pressure_sealevel;temperature;humidity
22181;BME280;11256;50.830;12.834;2023-05-29T00:00:13;97840.34;;;17.34;41.56
22181;BME280;11256;50.830;12.834;2023-05-29T00:05:13;97852.28;;;17.30;41.66
22181;BME280;11256;50.830;12.834;2023-05-29T00:10:14;97858.41;;;17.27;41.90
22181;BME280;11256;50.830;12.834;2023-05-29T00:15:15;97860.31;;;17.18;41.94
22181;BME280;11256;50.830;12.834;2023-05-29T00:20:15;97861.72;;;17.07;41.98
22181;BME280;11256;50.830;12.834;2023-05-29T00:25:16;97863.63;;;16.98;42.35
22181;BME280;11256;50.830;12.834;2023-05-29T00:30:16;97858.94;;;16.90;42.44
22181;BME280;11256;50.830;12.834;2023-05-29T00:35:16;97853.75;;;16.80;42.66
22181;BME280;11256;50.830;12.834;2023-05-29T00:40:17;97849.03;;;16.72;42.68
22181;BME280;11256;50.830;12.834;2023-05-29T00:45:17;97838.38;;;16.62;42.79
22181;BME280;11256;50.830;12.834;2023-05-29T00:50:21;97836.38;;;16.54;43.06
22181;BME280;11256;50.830;12.834;2023-05-29T00:55:22;97842.31;;;16.47;43.08
22181;BME280;11256;50.830;12.834;2023-05-29T01:00:22;97841.44;;;16.38;43.08
22181;BME280;11256;50.830;12.834;2023-05-29T01:05:23;97843.00;;;16.31;43.28
22181;BME280;11256;50.830;12.834;2023-05-29T01:10:24;97842.13;;;16.22;43.48
22181;BME280;11256;50.830;12.834;2023-05-29T01:15:43;97850.59;;;16.12;43.45
22181;BME280;11256;50.830;12.834;2023-05-29T01:20:58;97830.44;;;15.99;43.64
22181;BME280;11256;50.830;12.834;2023-05-29T01:31:37;97842.03;;;15.83;43.98
22181;BME280;11256;50.830;12.834;2023-05-29T01:36:37;97846.59;;;15.74;43.87
22181;BME280;11256;50.830;12.834;2023-05-29T01:41:37;97843.03;;;15.65;44.15
22181;BME280;11256;50.830;12.834;2023-05-29T01:46:41;97826.38;;;15.53;44.06
22181;BME280;11256;50.830;12.834;2023-05-29T01:51:42;97844.97;;;15.51;44.02
22181;BME280;11256;50.830;12.834;2023-05-29T01:56:43;97853.09;;;15.42;44.17
22181;BME280;11256;50.830;12.834;2023-05-29T02:01:44;97851.09;;;15.34;44.37
22181;BME280;11256;50.830;12.834;2023-05-29T02:06:45;97844.41;;;15.27;44.70
22181;BME280;11256;50.830;12.834;2023-05-29T02:11:45;97842.38;;;15.19;44.68
22181;BME280;11256;50.830;12.834;2023-05-29T02:16:46;97851.31;;;15.11;44.87
22181;BME280;11256;50.830;12.834;2023-05-29T02:21:47;97850.91;;;15.04;44.97
22181;BME280;11256;50.830;12.834;2023-05-29T02:26:48;97852.72;;;14.95;44.87
22181;BME280;11256;50.830;12.834;2023-05-29T02:31:50;97850.72;;;14.87;45.06
22181;BME280;11256;50.830;12.834;2023-05-29T02:36:51;97852.53;;;14.78;45.14
22181;BME280;11256;50.830;12.834;2023-05-29T02:41:54;97846.34;;;14.72;45.29
22181;BME280;11256;50.830;12.834;2023-05-29T02:46:55;97849.31;;;14.62;45.09
22181;BME280;11256;50.830;12.834;2023-05-29T02:51:55;97849.16;;;14.54;45.21
22181;BME280;11256;50.830;12.834;2023-05-29T02:56:57;97860.78;;;14.46;45.19
22181;BME280;11256;50.830;12.834;2023-05-29T03:01:57;97864.22;;;14.38;45.26
22181;BME280;11256;50.830;12.834;2023-05-29T03:06:58;97863.00;;;14.30;45.45
22181;BME280;11256;50.830;12.834;2023-05-29T03:11:58;97846.44;;;14.08;45.41
22181;BME280;11256;50.830;12.834;2023-05-29T03:17:04;97844.31;;;14.05;45.69
22181;BME280;11256;50.830;12.834;2023-05-29T03:22:05;97856.03;;;14.06;45.60
22181;BME280;11256;50.830;12.834;2023-05-29T03:27:08;97860.25;;;13.98;45.75
22181;BME280;11256;50.830;12.834;2023-05-29T03:32:09;97848.47;;;13.84;45.80
22181;BME280;11256;50.830;12.834;2023-05-29T03:37:10;97868.56;;;13.88;45.83
22181;BME280;11256;50.830;12.834;2023-05-29T03:42:11;97879.63;;;13.60;50.90
22181;BME280;11256;50.830;12.834;2023-05-29T03:47:11;97876.09;;;13.41;46.71
22181;BME280;11256;50.830;12.834;2023-05-29T03:52:12;97882.72;;;13.35;46.91
22181;BME280;11256;50.830;12.834;2023-05-29T03:57:12;97896.63;;;13.33;46.58
22181;BME280;11256;50.830;12.834;2023-05-29T04:02:13;97899.63;;;13.32;46.16
22181;BME280;11256;50.830;12.834;2023-05-29T04:07:13;97896.53;;;13.20;46.15
22181;BME280;11256;50.830;12.834;2023-05-29T04:12:14;97905.19;;;13.22;46.06
22181;BME280;11256;50.830;12.834;2023-05-29T04:17:15;97910.06;;;13.25;46.17
22181;BME280;11256;50.830;12.834;2023-05-29T04:22:17;97910.06;;;13.25;46.13
22181;BME280;11256;50.830;12.834;2023-05-29T04:27:17;97904.09;;;13.23;46.35
22181;BME280;11256;50.830;12.834;2023-05-29T04:32:18;97911.09;;;13.29;46.47
22181;BME280;11256;50.830;12.834;2023-05-29T04:37:18;97923.84;;;13.33;46.67
22181;BME280;11256;50.830;12.834;2023-05-29T04:42:21;97926.03;;;13.31;46.72
22181;BME280;11256;50.830;12.834;2023-05-29T04:47:22;97930.47;;;13.27;48.25
22181;BME280;11256;50.830;12.834;2023-05-29T04:52:23;97934.97;;;13.37;47.07
22181;BME280;11256;50.830;12.834;2023-05-29T04:57:23;97931.00;;;13.48;47.53
22181;BME280;11256;50.830;12.834;2023-05-29T05:02:24;97924.50;;;13.44;47.76
22181;BME280;11256;50.830;12.834;2023-05-29T05:07:24;97949.84;;;13.63;47.07
22181;BME280;11256;50.830;12.834;2023-05-29T05:12:25;97936.75;;;13.65;47.80
22181;BME280;11256;50.830;12.834;2023-05-29T05:17:25;97949.13;;;13.76;48.69
22181;BME280;11256;50.830;12.834;2023-05-29T05:22:26;97961.28;;;13.83;49.07
22181;BME280;11256;50.830;12.834;2023-05-29T05:27:26;97946.75;;;13.88;49.20
22181;BME280;11256;50.830;12.834;2023-05-29T05:32:27;97950.75;;;13.95;49.58
22181;BME280;11256;50.830;12.834;2023-05-29T05:37:35;97948.53;;;13.97;49.59
22181;BME280;11256;50.830;12.834;2023-05-29T05:42:37;97957.38;;;14.08;49.56
22181;BME280;11256;50.830;12.834;2023-05-29T05:47:41;97962.66;;;14.18;49.56
22181;BME280;11256;50.830;12.834;2023-05-29T05:52:42;97972.34;;;14.29;49.82
22181;BME280;11256;50.830;12.834;2023-05-29T05:57:42;97970.56;;;14.38;50.04
22181;BME280;11256;50.830;12.834;2023-05-29T06:02:43;97960.56;;;14.47;50.34
22181;BME280;11256;50.830;12.834;2023-05-29T06:07:48;97961.00;;;14.54;51.40
22181;BME280;11256;50.830;12.834;2023-05-29T06:12:48;97977.00;;;14.74;52.20
22181;BME280;11256;50.830;12.834;2023-05-29T06:17:56;97972.41;;;14.88;54.03
22181;BME280;11256;50.830;12.834;2023-05-29T06:22:57;97974.84;;;15.03;53.34
22181;BME280;11256;50.830;12.834;2023-05-29T06:28:01;97981.31;;;15.20;55.61
22181;BME280;11256;50.830;12.834;2023-05-29T06:33:01;97989.94;;;15.41;56.30
22181;BME280;11256;50.830;12.834;2023-05-29T06:38:05;97980.34;;;15.57;54.73
22181;BME280;11256;50.830;12.834;2023-05-29T06:43:06;97984.25;;;15.78;55.43
22181;BME280;11256;50.830;12.834;2023-05-29T06:48:21;97987.13;;;16.08;56.18
22181;BME280;11256;50.830;12.834;2023-05-29T06:53:22;98000.69;;;16.71;54.17
22181;BME280;11256;50.830;12.834;2023-05-29T06:58:24;98014.59;;;17.66;53.88
22181;BME280;11256;50.830;12.834;2023-05-29T07:03:25;98009.59;;;18.66;51.62
22181;BME280;11256;50.830;12.834;2023-05-29T07:08:27;98007.66;;;19.38;50.46
22181;BME280;11256;50.830;12.834;2023-05-29T07:13:28;98016.56;;;20.02;46.54
22181;BME280;11256;50.830;12.834;2023-05-29T07:18:28;98020.03;;;21.01;46.40
22181;BME280;11256;50.830;12.834;2023-05-29T07:23:29;98020.22;;;22.09;44.23
22181;BME280;11256;50.830;12.834;2023-05-29T07:28:30;98028.66;;;22.64;40.96
22181;BME280;11256;50.830;12.834;2023-05-29T07:33:31;98038.06;;;23.30;39.75
22181;BME280;11256;50.830;12.834;2023-05-29T07:38:31;98026.25;;;24.07;40.54
22181;BME280;11256;50.830;12.834;2023-05-29T07:43:32;98044.25;;;24.67;38.97
22181;BME280;11256;50.830;12.834;2023-05-29T07:48:35;98036.19;;;24.77;38.82
22181;BME280;11256;50.830;12.834;2023-05-29T07:53:36;98048.69;;;25.25;37.54
22181;BME280;11256;50.830;12.834;2023-05-29T07:58:37;98047.13;;;26.14;39.79
22181;BME280;11256;50.830;12.834;2023-05-29T08:03:38;98045.09;;;26.89;37.95
22181;BME280;11256;50.830;12.834;2023-05-29T08:09:08;98054.00;;;27.31;36.86
22181;BME280;11256;50.830;12.834;2023-05-29T08:14:08;98053.63;;;27.69;37.45
22181;BME280;11256;50.830;12.834;2023-05-29T08:19:10;98058.97;;;28.82;36.91
22181;BME280;11256;50.830;12.834;2023-05-29T08:24:11;98055.88;;;29.01;34.77
22181;BME280;11256;50.830;12.834;2023-05-29T08:29:11;98051.28;;;29.47;34.17
22181;BME280;11256;50.830;12.834;2023-05-29T08:34:11;98048.19;;;29.94;34.36
22181;BME280;11256;50.830;12.834;2023-05-29T08:39:12;98055.38;;;29.95;33.77
22181;BME280;11256;50.830;12.834;2023-05-29T08:44:13;98037.44;;;30.31;32.87
22181;BME280;11256;50.830;12.834;2023-05-29T08:49:18;98053.81;;;30.15;31.25
22181;BME280;11256;50.830;12.834;2023-05-29T08:54:20;98052.19;;;30.49;31.04
22181;BME280;11256;50.830;12.834;2023-05-29T08:59:21;98062.84;;;31.24;32.40
22181;BME280;11256;50.830;12.834;2023-05-29T09:04:21;98063.66;;;31.28;31.68
22181;BME280;11256;50.830;12.834;2023-05-29T09:09:23;98046.56;;;30.84;30.99
22181;BME280;11256;50.830;12.834;2023-05-29T09:14:42;98063.59;;;31.35;30.99
22181;BME280;11256;50.830;12.834;2023-05-29T09:19:44;98064.63;;;31.69;30.93
22181;BME280;11256;50.830;12.834;2023-05-29T09:24:47;98055.56;;;31.44;30.77
22181;BME280;11256;50.830;12.834;2023-05-29T09:29:48;98062.66;;;31.59;30.19
22181;BME280;11256;50.830;12.834;2023-05-29T09:34:52;98066.22;;;31.70;30.55
22181;BME280;11256;50.830;12.834;2023-05-29T09:39:53;98058.31;;;31.51;30.69
22181;BME280;11256;50.830;12.834;2023-05-29T09:44:54;98053.97;;;32.04;28.24
22181;BME280;11256;50.830;12.834;2023-05-29T09:49:54;98059.97;;;32.10;29.54
22181;BME280;11256;50.830;12.834;2023-05-29T09:54:56;98072.66;;;31.67;29.79
22181;BME280;11256;50.830;12.834;2023-05-29T09:59:58;98070.47;;;31.27;30.21
22181;BME280;11256;50.830;12.834;2023-05-29T10:04:59;98062.06;;;31.16;31.06
22181;BME280;11256;50.830;12.834;2023-05-29T10:10:03;98064.97;;;30.64;30.65
22181;BME280;11256;50.830;12.834;2023-05-29T10:15:10;98057.81;;;30.35;31.08
22181;BME280;11256;50.830;12.834;2023-05-29T10:20:14;98064.22;;;30.11;31.31
22181;BME280;11256;50.830;12.834;2023-05-29T10:25:18;98046.16;;;29.70;31.63
22181;BME280;11256;50.830;12.834;2023-05-29T10:30:29;98042.13;;;29.57;31.82
22181;BME280;11256;50.830;12.834;2023-05-29T10:35:54;98056.81;;;29.40;31.90
22181;BME280;11256;50.830;12.834;2023-05-29T10:40:55;98050.78;;;29.24;31.86
22181;BME280;11256;50.830;12.834;2023-05-29T10:45:56;98053.59;;;29.27;31.82
22181;BME280;11256;50.830;12.834;2023-05-29T10:50:57;98045.56;;;29.19;32.64
22181;BME280;11256;50.830;12.834;2023-05-29T10:56:00;98038.41;;;29.21;33.04
22181;BME280;11256;50.830;12.834;2023-05-29T11:01:08;98029.59;;;29.09;32.46
22181;BME280;11256;50.830;12.834;2023-05-29T11:06:34;98040.03;;;29.26;32.88
22181;BME280;11256;50.830;12.834;2023-05-29T11:11:35;98035.06;;;28.88;28.72
22181;BME280;11256;50.830;12.834;2023-05-29T11:16:37;98028.03;;;29.22;31.88
22181;BME280;11256;50.830;12.834;2023-05-29T11:26:47;98033.63;;;29.25;31.82
22181;BME280;11256;50.830;12.834;2023-05-29T11:31:49;98027.69;;;29.41;31.58
22181;BME280;11256;50.830;12.834;2023-05-29T11:36:57;98028.09;;;29.39;31.09
22181;BME280;11256;50.830;12.834;2023-05-29T11:41:59;98024.91;;;29.41;28.84
22181;BME280;11256;50.830;12.834;2023-05-29T11:47:01;98039.00;;;29.76;30.37
22181;BME280;11256;50.830;12.834;2023-05-29T11:52:13;98030.16;;;29.56;31.08
22181;BME280;11256;50.830;12.834;2023-05-29T11:57:18;98017.06;;;30.13;30.60
22181;BME280;11256;50.830;12.834;2023-05-29T12:02:19;98029.00;;;29.89;31.35
22181;BME280;11256;50.830;12.834;2023-05-29T12:07:20;98013.44;;;29.95;31.41
22181;BME280;11256;50.830;12.834;2023-05-29T12:12:20;98024.63;;;29.74;30.80
22181;BME280;11256;50.830;12.834;2023-05-29T12:17:21;98018.59;;;29.72;28.24
22181;BME280;11256;50.830;12.834;2023-05-29T12:22:35;98024.22;;;29.89;29.84
22181;BME280;11256;50.830;12.834;2023-05-29T12:27:37;98017.81;;;30.38;31.22
22181;BME280;11256;50.830;12.834;2023-05-29T12:32:44;98018.22;;;30.33;30.23
22181;BME280;11256;50.830;12.834;2023-05-29T12:38:07;98016.22;;;30.44;30.96
22181;BME280;11256;50.830;12.834;2023-05-29T12:43:08;98021.69;;;30.96;30.77
22181;BME280;11256;50.830;12.834;2023-05-29T12:48:09;98004.16;;;30.89;31.04
22181;BME280;11256;50.830;12.834;2023-05-29T12:53:12;98014.06;;;31.04;29.72
22181;BME280;11256;50.830;12.834;2023-05-29T12:58:14;98014.09;;;30.97;29.60
22181;BME280;11256;50.830;12.834;2023-05-29T13:03:16;98007.19;;;31.19;30.78
22181;BME280;11256;50.830;12.834;2023-05-29T13:08:16;98007.88;;;31.51;28.99
22181;BME280;11256;50.830;12.834;2023-05-29T13:13:16;98008.59;;;31.62;30.95
22181;BME280;11256;50.830;12.834;2023-05-29T13:18:18;98006.88;;;31.82;30.69
22181;BME280;11256;50.830;12.834;2023-05-29T13:23:18;98004.97;;;31.61;27.87
22181;BME280;11256;50.830;12.834;2023-05-29T13:28:19;98002.06;;;31.82;30.35
22181;BME280;11256;50.830;12.834;2023-05-29T13:33:19;98011.41;;;32.13;30.21
22181;BME280;11256;50.830;12.834;2023-05-29T13:38:19;97999.38;;;32.16;29.62
22181;BME280;11256;50.830;12.834;2023-05-29T13:43:20;98001.41;;;32.12;29.27
22181;BME280;11256;50.830;12.834;2023-05-29T13:48:20;97981.78;;;32.12;28.24
22181;BME280;11256;50.830;12.834;2023-05-29T13:53:21;97986.56;;;32.15;28.27
22181;BME280;11256;50.830;12.834;2023-05-29T13:58:21;97987.41;;;32.08;29.37
22181;BME280;11256;50.830;12.834;2023-05-29T14:03:22;97980.03;;;32.32;29.11
22181;BME280;11256;50.830;12.834;2023-05-29T14:08:25;97975.69;;;32.61;29.27
22181;BME280;11256;50.830;12.834;2023-05-29T14:13:26;97985.94;;;32.78;28.48
22181;BME280;11256;50.830;12.834;2023-05-29T14:18:26;97964.38;;;32.68;29.05
22181;BME280;11256;50.830;12.834;2023-05-29T14:23:26;97977.00;;;32.86;28.71
22181;BME280;11256;50.830;12.834;2023-05-29T14:28:26;97983.09;;;32.81;28.65
22181;BME280;11256;50.830;12.834;2023-05-29T14:33:27;97989.03;;;32.90;28.11
22181;BME280;11256;50.830;12.834;2023-05-29T14:38:27;97979.41;;;32.88;28.17
22181;BME280;11256;50.830;12.834;2023-05-29T14:43:27;97984.41;;;32.70;27.10
22181;BME280;11256;50.830;12.834;2023-05-29T14:48:28;97975.47;;;32.82;27.80
22181;BME280;11256;50.830;12.834;2023-05-29T14:53:28;97966.44;;;32.64;28.28
22181;BME280;11256;50.830;12.834;2023-05-29T14:58:28;97979.63;;;32.67;28.34
22181;BME280;11256;50.830;12.834;2023-05-29T15:03:29;97966.63;;;32.83;28.75
22181;BME280;11256;50.830;12.834;2023-05-29T15:08:30;97978.19;;;32.89;28.35
22181;BME280;11256;50.830;12.834;2023-05-29T15:13:34;97969.84;;;32.82;28.52
22181;BME280;11256;50.830;12.834;2023-05-29T15:18:34;97967.50;;;32.77;28.41
22181;BME280;11256;50.830;12.834;2023-05-29T15:23:35;97963.53;;;32.71;28.32
22181;BME280;11256;50.830;12.834;2023-05-29T15:28:38;97976.31;;;32.75;28.21
22181;BME280;11256;50.830;12.834;2023-05-29T15:33:39;97968.41;;;32.67;27.93
22181;BME280;11256;50.830;12.834;2023-05-29T15:38:40;97969.09;;;32.78;27.45
22181;BME280;11256;50.830;12.834;2023-05-29T15:43:40;97973.97;;;32.70;27.15
22181;BME280;11256;50.830;12.834;2023-05-29T15:48:41;97966.13;;;32.55;27.21
22181;BME280;11256;50.830;12.834;2023-05-29T15:53:41;97953.97;;;32.28;27.74
22181;BME280;11256;50.830;12.834;2023-05-29T15:58:41;97961.75;;;32.10;28.30
22181;BME280;11256;50.830;12.834;2023-05-29T16:03:42;97969.94;;;31.90;28.59
22181;BME280;11256;50.830;12.834;2023-05-29T16:08:42;97964.97;;;31.57;28.69
22181;BME280;11256;50.830;12.834;2023-05-29T16:13:42;97968.25;;;31.42;28.96
22181;BME280;11256;50.830;12.834;2023-05-29T16:18:43;97963.59;;;31.18;28.98
22181;BME280;11256;50.830;12.834;2023-05-29T16:23:43;97952.13;;;30.88;28.90
22181;BME280;11256;50.830;12.834;2023-05-29T16:28:44;97961.81;;;30.73;29.32
22181;BME280;11256;50.830;12.834;2023-05-29T16:33:45;97943.84;;;30.53;29.52
22181;BME280;11256;50.830;12.834;2023-05-29T16:38:45;97947.47;;;30.43;29.60
22181;BME280;11256;50.830;12.834;2023-05-29T16:43:46;97945.09;;;30.34;29.49
22181;BME280;11256;50.830;12.834;2023-05-29T16:48:46;97937.94;;;30.16;29.54
22181;BME280;11256;50.830;12.834;2023-05-29T16:53:46;97957.09;;;30.00;29.62
22181;BME280;11256;50.830;12.834;2023-05-29T16:58:47;97947.91;;;29.85;29.50
22181;BME280;11256;50.830;12.834;2023-05-29T17:03:47;97955.53;;;29.64;30.16
22181;BME280;11256;50.830;12.834;2023-05-29T17:08:47;97954.69;;;29.53;29.72
22181;BME280;11256;50.830;12.834;2023-05-29T17:13:48;97952.25;;;29.34;30.13
22181;BME280;11256;50.830;12.834;2023-05-29T17:18:48;97946.63;;;29.13;30.31
22181;BME280;11256;50.830;12.834;2023-05-29T17:23:48;97945.00;;;29.05;30.50
22181;BME280;11256;50.830;12.834;2023-05-29T17:28:54;97950.94;;;28.93;30.36
22181;BME280;11256;50.830;12.834;2023-05-29T17:33:54;97959.25;;;28.82;30.51
22181;BME280;11256;50.830;12.834;2023-05-29T17:38:56;97954.78;;;28.64;30.55
22181;BME280;11256;50.830;12.834;2023-05-29T17:43:57;97965.53;;;28.55;30.97
22181;BME280;11256;50.830;12.834;2023-05-29T17:48:57;97966.63;;;28.40;30.81
22181;BME280;11256;50.830;12.834;2023-05-29T17:53:58;97963.72;;;28.26;31.16
22181;BME280;11256;50.830;12.834;2023-05-29T17:58:58;97957.16;;;27.97;31.40
22181;BME280;11256;50.830;12.834;2023-05-29T18:03:58;97967.78;;;27.81;31.93
22181;BME280;11256;50.830;12.834;2023-05-29T18:08:59;97979.19;;;27.69;31.55
22181;BME280;11256;50.830;12.834;2023-05-29T18:13:59;97985.81;;;27.51;31.63
22181;BME280;11256;50.830;12.834;2023-05-29T18:18:59;97996.81;;;27.40;31.65
22181;BME280;11256;50.830;12.834;2023-05-29T18:24:00;98000.94;;;27.17;31.92
22181;BME280;11256;50.830;12.834;2023-05-29T18:29:00;98002.28;;;26.97;32.23
22181;BME280;11256;50.830;12.834;2023-05-29T18:34:02;97999.28;;;26.79;32.01
22181;BME280;11256;50.830;12.834;2023-05-29T18:39:03;97995.38;;;26.58;32.42
22181;BME280;11256;50.830;12.834;2023-05-29T18:44:05;97993.13;;;26.41;32.48
22181;BME280;11256;50.830;12.834;2023-05-29T18:49:05;97992.09;;;26.23;32.69
22181;BME280;11256;50.830;12.834;2023-05-29T18:54:05;97994.22;;;26.07;32.42
22181;BME280;11256;50.830;12.834;2023-05-29T18:59:10;98007.09;;;25.92;32.51
22181;BME280;11256;50.830;12.834;2023-05-29T19:04:10;98009.78;;;25.66;32.99
22181;BME280;11256;50.830;12.834;2023-05-29T19:09:10;98025.84;;;25.54;33.22
22181;BME280;11256;50.830;12.834;2023-05-29T19:14:14;98026.31;;;25.37;33.17
22181;BME280;11256;50.830;12.834;2023-05-29T19:19:15;98019.00;;;25.10;33.46
22181;BME280;11256;50.830;12.834;2023-05-29T19:24:15;98036.25;;;25.00;33.51
22181;BME280;11256;50.830;12.834;2023-05-29T19:29:17;98046.63;;;24.84;33.68
22181;BME280;11256;50.830;12.834;2023-05-29T19:34:18;98034.63;;;24.61;33.62
22181;BME280;11256;50.830;12.834;2023-05-29T19:39:19;98052.69;;;24.55;34.11
22181;BME280;11256;50.830;12.834;2023-05-29T19:44:19;98054.25;;;24.37;34.26
22181;BME280;11256;50.830;12.834;2023-05-29T19:49:20;98063.13;;;24.27;34.15
22181;BME280;11256;50.830;12.834;2023-05-29T19:54:20;98052.41;;;24.10;34.47
22181;BME280;11256;50.830;12.834;2023-05-29T19:59:21;98048.84;;;23.94;34.61
22181;BME280;11256;50.830;12.834;2023-05-29T20:04:21;98050.09;;;23.81;34.59
22181;BME280;11256;50.830;12.834;2023-05-29T20:09:21;98076.06;;;23.76;34.62
22181;BME280;11256;50.830;12.834;2023-05-29T20:14:23;98074.88;;;23.62;34.82
22181;BME280;11256;50.830;12.834;2023-05-29T20:19:24;98071.63;;;23.44;35.03
22181;BME280;11256;50.830;12.834;2023-05-29T20:24:24;98077.81;;;23.38;35.10
22181;BME280;11256;50.830;12.834;2023-05-29T20:29:25;98065.28;;;23.16;35.20
22181;BME280;11256;50.830;12.834;2023-05-29T20:34:25;98067.78;;;23.06;35.40
22181;BME280;11256;50.830;12.834;2023-05-29T20:39:25;98072.88;;;22.92;35.70
22181;BME280;11256;50.830;12.834;2023-05-29T20:44:27;98084.56;;;22.85;35.58
22181;BME280;11256;50.830;12.834;2023-05-29T20:49:29;98073.41;;;22.70;35.96
22181;BME280;11256;50.830;12.834;2023-05-29T20:54:29;98090.13;;;22.61;35.80
22181;BME280;11256;50.830;12.834;2023-05-29T20:59:30;98080.59;;;22.47;35.93
22181;BME280;11256;50.830;12.834;2023-05-29T21:04:31;98091.66;;;22.35;36.37
22181;BME280;11256;50.830;12.834;2023-05-29T21:09:31;98099.94;;;22.23;36.46
22181;BME280;11256;50.830;12.834;2023-05-29T21:14:32;98092.91;;;22.13;36.82
22181;BME280;11256;50.830;12.834;2023-05-29T21:19:32;98065.63;;;21.88;37.09
22181;BME280;11256;50.830;12.834;2023-05-29T21:24:32;98085.44;;;21.90;37.02
22181;BME280;11256;50.830;12.834;2023-05-29T21:29:34;98081.03;;;21.77;37.28
22181;BME280;11256;50.830;12.834;2023-05-29T21:34:35;98073.63;;;21.57;37.23
22181;BME280;11256;50.830;12.834;2023-05-29T21:39:35;98090.03;;;21.53;37.33
22181;BME280;11256;50.830;12.834;2023-05-29T21:44:35;98096.34;;;21.42;37.35
22181;BME280;11256;50.830;12.834;2023-05-29T21:49:36;98096.53;;;21.25;37.86
22181;BME280;11256;50.830;12.834;2023-05-29T21:54:36;98098.53;;;21.16;37.74
22181;BME280;11256;50.830;12.834;2023-05-29T21:59:37;98112.19;;;21.12;37.75
22181;BME280;11256;50.830;12.834;2023-05-29T22:04:37;98108.91;;;20.98;38.17
22181;BME280;11256;50.830;12.834;2023-05-29T22:09:37;98109.47;;;20.92;38.33
22181;BME280;11256;50.830;12.834;2023-05-29T22:14:38;98122.13;;;20.84;38.18
22181;BME280;11256;50.830;12.834;2023-05-29T22:19:39;98121.91;;;20.69;38.13
22181;BME280;11256;50.830;12.834;2023-05-29T22:24:39;98125.28;;;20.54;38.44
22181;BME280;11256;50.830;12.834;2023-05-29T22:29:41;98133.03;;;20.52;38.48
22181;BME280;11256;50.830;12.834;2023-05-29T22:34:41;98125.22;;;20.33;38.58
22181;BME280;11256;50.830;12.834;2023-05-29T22:39:42;98127.38;;;20.28;38.65
22181;BME280;11256;50.830;12.834;2023-05-29T22:44:42;98130.94;;;20.20;38.94
22181;BME280;11256;50.830;12.834;2023-05-29T22:49:43;98120.34;;;20.10;39.08
22181;BME280;11256;50.830;12.834;2023-05-29T22:54:43;98127.47;;;20.02;38.95
22181;BME280;11256;50.830;12.834;2023-05-29T22:59:44;98130.56;;;19.92;39.21
22181;BME280;11256;50.830;12.834;2023-05-29T23:04:44;98106.22;;;19.74;39.09
22181;BME280;11256;50.830;12.834;2023-05-29T23:09:45;98104.94;;;19.63;39.25
22181;BME280;11256;50.830;12.834;2023-05-29T23:14:46;98112.06;;;19.64;39.22
22181;BME280;11256;50.830;12.834;2023-05-29T23:19:46;98120.47;;;19.59;39.26
22181;BME280;11256;50.830;12.834;2023-05-29T23:24:47;98125.69;;;19.52;39.30
22181;BME280;11256;50.830;12.834;2023-05-29T23:29:48;98121.00;;;19.44;39.45
22181;BME280;11256;50.830;12.834;2023-05-29T23:34:48;98126.88;;;19.34;39.62
22181;BME280;11256;50.830;12.834;2023-05-29T23:39:49;98122.84;;;19.23;39.80
22181;BME280;11256;50.830;12.834;2023-05-29T23:44:49;98132.31;;;19.17;39.80
22181;BME280;11256;50.830;12.834;2023-05-29T23:49:50;98114.25;;;18.99;40.19
22181;BME280;11256;50.830;12.834;2023-05-29T23:54:50;98128.63;;;18.96;40.19
22181;BME280;11256;50.830;12.834;2023-05-29T23:59:51;98112.13;;;18.79;40.00
